sensor_id;sensor_type;location;lat;lon;timestamp;P1;durP1;ratioP1;P2;durP2;ratioP2
20101;SDS011;10210;52.284;9.892;2023-02-01T00:00:11;21.37;;;3.70;;
20101;SDS011;10210;52.284;9.892;2023-02-01T00:02:37;22.87;;;3.87;;
20101;SDS011;10210;52.284;9.892;2023-02-01T00:05:06;22.90;;;3.90;;
20101;SDS011;10210;52.284;9.892;2023-02-01T00:07:34;23.07;;;3.80;;
20101;SDS011;10210;52.284;9.892;2023-02-01T00:10:01;20.23;;;3.50;;
20101;SDS011;10210;52.284;9.892;2023-02-01T00:12:28;28.93;;;4.53;;
20101;SDS011;10210;52.284;9.892;2023-02-01T00:14:54;23.43;;;4.00;;
20101;SDS011;10210;52.284;9.892;2023-02-01T00:17:20;18.23;;;4.17;;
20101;SDS011;10210;52.284;9.892;2023-02-01T00:19:45;21.00;;;3.53;;
20101;SDS011;10210;52.284;9.892;2023-02-01T00:22:11;20.73;;;3.83;;
20101;SDS011;10210;52.284;9.892;2023-02-01T00:24:37;21.43;;;3.97;;
20101;SDS011;10210;52.284;9.892;2023-02-01T00:27:03;23.33;;;4.03;;
20101;SDS011;10210;52.284;9.892;2023-02-01T00:29:28;23.33;;;4.43;;
20101;SDS011;10210;52.284;9.892;2023-02-01T00:31:54;23.20;;;3.73;;
20101;SDS011;10210;52.284;9.892;2023-02-01T00:34:19;22.40;;;3.73;;
20101;SDS011;10210;52.284;9.892;2023-02-01T00:36:45;22.53;;;3.40;;
20101;SDS011;10210;52.284;9.892;2023-02-01T00:39:12;19.33;;;4.00;;
20101;SDS011;10210;52.284;9.892;2023-02-01T00:41:38;23.07;;;4.10;;
20101;SDS011;10210;52.284;9.892;2023-02-01T00:44:05;21.57;;;3.80;;
20101;SDS011;10210;52.284;9.892;2023-02-01T00:46:31;22.73;;;3.83;;
20101;SDS011;10210;52.284;9.892;2023-02-01T00:48:57;22.03;;;5.03;;
20101;SDS011;10210;52.284;9.892;2023-02-01T00:51:24;23.70;;;4.97;;
20101;SDS011;10210;52.284;9.892;2023-02-01T00:53:52;22.13;;;4.03;;
20101;SDS011;10210;52.284;9.892;2023-02-01T00:56:19;20.10;;;3.83;;
20101;SDS011;10210;52.284;9.892;2023-02-01T00:58:45;23.20;;;4.60;;
20101;SDS011;10210;52.284;9.892;2023-02-01T01:01:16;19.27;;;3.73;;
20101;SDS011;10210;52.284;9.892;2023-02-01T01:03:52;16.47;;;3.37;;
20101;SDS011;10210;52.284;9.892;2023-02-01T01:06:24;23.73;;;4.60;;
20101;SDS011;10210;52.284;9.892;2023-02-01T01:08:55;21.87;;;3.70;;
20101;SDS011;10210;52.284;9.892;2023-02-01T01:11:24;19.80;;;4.40;;
20101;SDS011;10210;52.284;9.892;2023-02-01T01:13:56;26.10;;;4.13;;
20101;SDS011;10210;52.284;9.892;2023-02-01T01:16:24;20.07;;;4.13;;
20101;SDS011;10210;52.284;9.892;2023-02-01T01:18:54;23.10;;;3.80;;
20101;SDS011;10210;52.284;9.892;2023-02-01T01:21:20;25.77;;;4.17;;
20101;SDS011;10210;52.284;9.892;2023-02-01T01:23:46;24.97;;;4.23;;
20101;SDS011;10210;52.284;9.892;2023-02-01T01:26:13;22.27;;;4.37;;
20101;SDS011;10210;52.284;9.892;2023-02-01T01:28:45;23.87;;;4.00;;
20101;SDS011;10210;52.284;9.892;2023-02-01T01:31:11;19.30;;;3.63;;
20101;SDS011;10210;52.284;9.892;2023-02-01T01:33:39;21.37;;;3.60;;
20101;SDS011;10210;52.284;9.892;2023-02-01T01:36:07;20.50;;;3.70;;
20101;SDS011;10210;52.284;9.892;2023-02-01T01:38:36;19.23;;;3.40;;
20101;SDS011;10210;52.284;9.892;2023-02-01T01:41:03;21.90;;;3.83;;
20101;SDS011;10210;52.284;9.892;2023-02-01T01:43:49;22.67;;;4.07;;
20101;SDS011;10210;52.284;9.892;2023-02-01T01:46:25;23.67;;;4.57;;
20101;SDS011;10210;52.284;9.892;2023-02-01T01:49:05;21.70;;;4.10;;
20101;SDS011;10210;52.284;9.892;2023-02-01T01:51:40;19.60;;;4.53;;
20101;SDS011;10210;52.284;9.892;2023-02-01T01:54:24;27.23;;;5.10;;
20101;SDS011;10210;52.284;9.892;2023-02-01T01:56:58;20.17;;;4.47;;
20101;SDS011;10210;52.284;9.892;2023-02-01T01:59:29;21.33;;;4.40;;
20101;SDS011;10210;52.284;9.892;2023-02-01T02:01:59;25.90;;;5.10;;
20101;SDS011;10210;52.284;9.892;2023-02-01T02:04:24;20.57;;;4.33;;
20101;SDS011;10210;52.284;9.892;2023-02-01T02:06:54;22.80;;;3.60;;
20101;SDS011;10210;52.284;9.892;2023-02-01T02:09:27;20.40;;;3.67;;
20101;SDS011;10210;52.284;9.892;2023-02-01T02:11:52;21.63;;;4.30;;
20101;SDS011;10210;52.284;9.892;2023-02-01T02:14:18;25.30;;;4.07;;
20101;SDS011;10210;52.284;9.892;2023-02-01T02:16:52;24.57;;;4.43;;
20101;SDS011;10210;52.284;9.892;2023-02-01T02:19:43;21.03;;;3.70;;
20101;SDS011;10210;52.284;9.892;2023-02-01T02:22:55;19.50;;;4.07;;
20101;SDS011;10210;52.284;9.892;2023-02-01T02:35:32;20.93;;;4.30;;
20101;SDS011;10210;52.284;9.892;2023-02-01T02:38:18;21.80;;;4.23;;
20101;SDS011;10210;52.284;9.892;2023-02-01T02:44:59;24.23;;;4.73;;
20101;SDS011;10210;52.284;9.892;2023-02-01T02:50:51;20.80;;;4.33;;
20101;SDS011;10210;52.284;9.892;2023-02-01T02:53:59;19.67;;;4.23;;
20101;SDS011;10210;52.284;9.892;2023-02-01T02:56:51;21.30;;;4.77;;
20101;SDS011;10210;52.284;9.892;2023-02-01T02:59:39;26.60;;;4.83;;
20101;SDS011;10210;52.284;9.892;2023-02-01T03:02:26;21.33;;;4.30;;
20101;SDS011;10210;52.284;9.892;2023-02-01T03:05:12;18.93;;;4.20;;
20101;SDS011;10210;52.284;9.892;2023-02-01T03:10:24;23.87;;;4.17;;
20101;SDS011;10210;52.284;9.892;2023-02-01T03:12:54;21.83;;;4.17;;
20101;SDS011;10210;52.284;9.892;2023-02-01T03:16:10;24.50;;;5.43;;
20101;SDS011;10210;52.284;9.892;2023-02-01T03:18:28;22.13;;;4.23;;
20101;SDS011;10210;52.284;9.892;2023-02-01T03:21:10;19.30;;;4.60;;
20101;SDS011;10210;52.284;9.892;2023-02-01T03:23:46;23.10;;;5.40;;
20101;SDS011;10210;52.284;9.892;2023-02-01T03:26:16;19.97;;;3.60;;
20101;SDS011;10210;52.284;9.892;2023-02-01T03:28:48;22.47;;;4.03;;
20101;SDS011;10210;52.284;9.892;2023-02-01T03:31:21;19.83;;;3.80;;
20101;SDS011;10210;52.284;9.892;2023-02-01T03:33:48;25.93;;;4.93;;
20101;SDS011;10210;52.284;9.892;2023-02-01T03:36:15;22.27;;;5.60;;
20101;SDS011;10210;52.284;9.892;2023-02-01T03:38:57;24.07;;;4.27;;
20101;SDS011;10210;52.284;9.892;2023-02-01T03:41:40;24.57;;;4.77;;
20101;SDS011;10210;52.284;9.892;2023-02-01T03:47:10;21.63;;;5.03;;
20101;SDS011;10210;52.284;9.892;2023-02-01T03:49:55;18.03;;;4.07;;
20101;SDS011;10210;52.284;9.892;2023-02-01T03:55:08;19.77;;;4.40;;
20101;SDS011;10210;52.284;9.892;2023-02-01T03:57:39;24.50;;;4.60;;
20101;SDS011;10210;52.284;9.892;2023-02-01T04:00:18;23.37;;;4.63;;
20101;SDS011;10210;52.284;9.892;2023-02-01T04:02:48;20.27;;;4.30;;
20101;SDS011;10210;52.284;9.892;2023-02-01T04:05:15;21.27;;;4.60;;
20101;SDS011;10210;52.284;9.892;2023-02-01T04:07:41;20.33;;;4.20;;
20101;SDS011;10210;52.284;9.892;2023-02-01T04:10:08;20.33;;;4.47;;
20101;SDS011;10210;52.284;9.892;2023-02-01T04:12:35;22.53;;;4.73;;
20101;SDS011;10210;52.284;9.892;2023-02-01T04:15:01;20.73;;;4.77;;
20101;SDS011;10210;52.284;9.892;2023-02-01T04:17:28;21.33;;;4.80;;
20101;SDS011;10210;52.284;9.892;2023-02-01T04:19:54;29.73;;;6.10;;
20101;SDS011;10210;52.284;9.892;2023-02-01T04:22:20;21.53;;;4.70;;
20101;SDS011;10210;52.284;9.892;2023-02-01T04:24:45;21.67;;;4.73;;
20101;SDS011;10210;52.284;9.892;2023-02-01T04:27:11;21.13;;;4.97;;
20101;SDS011;10210;52.284;9.892;2023-02-01T04:29:37;24.33;;;5.13;;
20101;SDS011;10210;52.284;9.892;2023-02-01T04:32:03;18.23;;;4.57;;
20101;SDS011;10210;52.284;9.892;2023-02-01T04:34:30;27.87;;;5.43;;
20101;SDS011;10210;52.284;9.892;2023-02-01T04:36:55;18.83;;;4.37;;
20101;SDS011;10210;52.284;9.892;2023-02-01T04:39:21;24.60;;;5.23;;
20101;SDS011;10210;52.284;9.892;2023-02-01T04:41:47;20.93;;;4.60;;
20101;SDS011;10210;52.284;9.892;2023-02-01T04:44:14;19.33;;;4.63;;
20101;SDS011;10210;52.284;9.892;2023-02-01T04:46:42;20.07;;;4.73;;
20101;SDS011;10210;52.284;9.892;2023-02-01T04:49:09;21.50;;;5.33;;
20101;SDS011;10210;52.284;9.892;2023-02-01T04:51:35;28.30;;;5.07;;
20101;SDS011;10210;52.284;9.892;2023-02-01T04:54:01;21.03;;;4.43;;
20101;SDS011;10210;52.284;9.892;2023-02-01T04:56:27;24.50;;;5.50;;
20101;SDS011;10210;52.284;9.892;2023-02-01T04:58:52;24.20;;;5.17;;
20101;SDS011;10210;52.284;9.892;2023-02-01T05:01:18;21.60;;;4.53;;
20101;SDS011;10210;52.284;9.892;2023-02-01T05:03:44;21.23;;;4.70;;
20101;SDS011;10210;52.284;9.892;2023-02-01T05:06:09;19.13;;;4.43;;
20101;SDS011;10210;52.284;9.892;2023-02-01T05:08:35;20.90;;;4.97;;
20101;SDS011;10210;52.284;9.892;2023-02-01T05:11:01;19.90;;;4.63;;
20101;SDS011;10210;52.284;9.892;2023-02-01T05:13:30;19.47;;;4.37;;
20101;SDS011;10210;52.284;9.892;2023-02-01T05:16:14;16.00;;;4.23;;
20101;SDS011;10210;52.284;9.892;2023-02-01T05:18:40;21.80;;;4.80;;
20101;SDS011;10210;52.284;9.892;2023-02-01T05:21:06;21.90;;;4.40;;
20101;SDS011;10210;52.284;9.892;2023-02-01T05:23:32;22.50;;;4.80;;
20101;SDS011;10210;52.284;9.892;2023-02-01T05:26:18;18.33;;;4.47;;
20101;SDS011;10210;52.284;9.892;2023-02-01T05:28:43;17.00;;;4.07;;
20101;SDS011;10210;52.284;9.892;2023-02-01T05:31:09;20.93;;;4.93;;
20101;SDS011;10210;52.284;9.892;2023-02-01T05:33:36;19.83;;;4.47;;
20101;SDS011;10210;52.284;9.892;2023-02-01T05:36:02;19.20;;;4.50;;
20101;SDS011;10210;52.284;9.892;2023-02-01T05:38:28;18.27;;;5.23;;
20101;SDS011;10210;52.284;9.892;2023-02-01T05:40:54;22.97;;;4.83;;
20101;SDS011;10210;52.284;9.892;2023-02-01T05:43:21;22.47;;;4.80;;
20101;SDS011;10210;52.284;9.892;2023-02-01T05:45:47;20.50;;;4.83;;
20101;SDS011;10210;52.284;9.892;2023-02-01T05:48:13;20.07;;;4.50;;
20101;SDS011;10210;52.284;9.892;2023-02-01T05:50:38;22.03;;;4.93;;
20101;SDS011;10210;52.284;9.892;2023-02-01T05:53:04;19.57;;;5.03;;
20101;SDS011;10210;52.284;9.892;2023-02-01T05:55:30;16.93;;;4.10;;
20101;SDS011;10210;52.284;9.892;2023-02-01T05:57:56;20.50;;;4.50;;
20101;SDS011;10210;52.284;9.892;2023-02-01T06:00:22;18.60;;;4.03;;
20101;SDS011;10210;52.284;9.892;2023-02-01T06:02:48;18.83;;;4.40;;
20101;SDS011;10210;52.284;9.892;2023-02-01T06:05:14;19.63;;;4.40;;
20101;SDS011;10210;52.284;9.892;2023-02-01T06:07:40;19.10;;;4.43;;
20101;SDS011;10210;52.284;9.892;2023-02-01T06:10:05;21.00;;;4.50;;
20101;SDS011;10210;52.284;9.892;2023-02-01T06:12:31;23.87;;;4.63;;
20101;SDS011;10210;52.284;9.892;2023-02-01T06:14:57;16.77;;;4.23;;
20101;SDS011;10210;52.284;9.892;2023-02-01T06:17:24;22.37;;;4.93;;
20101;SDS011;10210;52.284;9.892;2023-02-01T06:19:49;23.07;;;4.30;;
20101;SDS011;10210;52.284;9.892;2023-02-01T06:22:15;18.90;;;4.50;;
20101;SDS011;10210;52.284;9.892;2023-02-01T06:24:41;20.43;;;3.50;;
20101;SDS011;10210;52.284;9.892;2023-02-01T06:27:07;17.00;;;3.50;;
20101;SDS011;10210;52.284;9.892;2023-02-01T06:29:34;15.93;;;3.70;;
20101;SDS011;10210;52.284;9.892;2023-02-01T06:32:00;17.77;;;3.83;;
20101;SDS011;10210;52.284;9.892;2023-02-01T06:34:26;16.00;;;4.13;;
20101;SDS011;10210;52.284;9.892;2023-02-01T06:36:52;19.27;;;3.93;;
20101;SDS011;10210;52.284;9.892;2023-02-01T06:39:18;16.57;;;3.77;;
20101;SDS011;10210;52.284;9.892;2023-02-01T06:41:47;15.97;;;3.40;;
20101;SDS011;10210;52.284;9.892;2023-02-01T06:44:14;15.83;;;3.50;;
20101;SDS011;10210;52.284;9.892;2023-02-01T06:46:40;18.93;;;4.13;;
20101;SDS011;10210;52.284;9.892;2023-02-01T06:49:06;16.93;;;4.53;;
20101;SDS011;10210;52.284;9.892;2023-02-01T06:51:32;18.93;;;3.07;;
20101;SDS011;10210;52.284;9.892;2023-02-01T06:53:58;14.40;;;3.53;;
20101;SDS011;10210;52.284;9.892;2023-02-01T06:56:24;18.13;;;3.30;;
20101;SDS011;10210;52.284;9.892;2023-02-01T06:58:51;13.80;;;3.13;;
20101;SDS011;10210;52.284;9.892;2023-02-01T07:01:17;13.80;;;3.10;;
20101;SDS011;10210;52.284;9.892;2023-02-01T07:03:46;15.00;;;3.33;;
20101;SDS011;10210;52.284;9.892;2023-02-01T07:06:13;12.80;;;3.20;;
20101;SDS011;10210;52.284;9.892;2023-02-01T07:08:39;17.07;;;3.50;;
20101;SDS011;10210;52.284;9.892;2023-02-01T07:11:08;13.53;;;3.20;;
20101;SDS011;10210;52.284;9.892;2023-02-01T07:13:38;12.43;;;3.30;;
20101;SDS011;10210;52.284;9.892;2023-02-01T07:16:06;14.67;;;3.60;;
20101;SDS011;10210;52.284;9.892;2023-02-01T07:18:37;14.63;;;3.13;;
20101;SDS011;10210;52.284;9.892;2023-02-01T07:21:03;12.47;;;3.07;;
20101;SDS011;10210;52.284;9.892;2023-02-01T07:23:29;16.30;;;3.93;;
20101;SDS011;10210;52.284;9.892;2023-02-01T07:25:56;13.37;;;3.30;;
20101;SDS011;10210;52.284;9.892;2023-02-01T07:28:24;20.00;;;3.80;;
20101;SDS011;10210;52.284;9.892;2023-02-01T07:30:53;17.27;;;3.90;;
20101;SDS011;10210;52.284;9.892;2023-02-01T07:33:19;14.83;;;3.70;;
20101;SDS011;10210;52.284;9.892;2023-02-01T07:35:48;16.30;;;3.87;;
20101;SDS011;10210;52.284;9.892;2023-02-01T07:38:15;19.53;;;4.13;;
20101;SDS011;10210;52.284;9.892;2023-02-01T07:40:42;20.07;;;4.30;;
20101;SDS011;10210;52.284;9.892;2023-02-01T07:43:07;20.23;;;5.00;;
20101;SDS011;10210;52.284;9.892;2023-02-01T07:45:34;21.27;;;4.20;;
20101;SDS011;10210;52.284;9.892;2023-02-01T07:48:01;20.00;;;3.70;;
20101;SDS011;10210;52.284;9.892;2023-02-01T07:50:27;18.13;;;3.73;;
20101;SDS011;10210;52.284;9.892;2023-02-01T07:52:54;14.37;;;4.00;;
20101;SDS011;10210;52.284;9.892;2023-02-01T07:55:20;17.57;;;3.43;;
20101;SDS011;10210;52.284;9.892;2023-02-01T07:57:46;19.70;;;3.77;;
20101;SDS011;10210;52.284;9.892;2023-02-01T08:00:12;19.33;;;4.00;;
20101;SDS011;10210;52.284;9.892;2023-02-01T08:02:58;20.13;;;3.63;;
20101;SDS011;10210;52.284;9.892;2023-02-01T08:05:24;19.80;;;3.77;;
20101;SDS011;10210;52.284;9.892;2023-02-01T08:07:52;18.10;;;3.87;;
20101;SDS011;10210;52.284;9.892;2023-02-01T08:10:18;16.87;;;3.30;;
20101;SDS011;10210;52.284;9.892;2023-02-01T08:12:44;19.03;;;4.00;;
20101;SDS011;10210;52.284;9.892;2023-02-01T08:15:13;17.63;;;3.67;;
20101;SDS011;10210;52.284;9.892;2023-02-01T08:17:48;21.73;;;4.03;;
20101;SDS011;10210;52.284;9.892;2023-02-01T08:20:16;18.90;;;3.70;;
20101;SDS011;10210;52.284;9.892;2023-02-01T08:22:43;16.40;;;3.60;;
20101;SDS011;10210;52.284;9.892;2023-02-01T08:25:09;21.90;;;4.20;;
20101;SDS011;10210;52.284;9.892;2023-02-01T08:27:36;17.00;;;4.00;;
20101;SDS011;10210;52.284;9.892;2023-02-01T08:30:03;18.77;;;3.60;;
20101;SDS011;10210;52.284;9.892;2023-02-01T08:32:32;20.07;;;4.10;;
20101;SDS011;10210;52.284;9.892;2023-02-01T08:34:59;14.87;;;3.33;;
20101;SDS011;10210;52.284;9.892;2023-02-01T08:37:24;18.53;;;3.77;;
20101;SDS011;10210;52.284;9.892;2023-02-01T08:39:52;22.90;;;4.10;;
20101;SDS011;10210;52.284;9.892;2023-02-01T08:42:17;14.87;;;3.43;;
20101;SDS011;10210;52.284;9.892;2023-02-01T08:45:02;18.83;;;3.53;;
20101;SDS011;10210;52.284;9.892;2023-02-01T08:47:29;18.27;;;3.47;;
20101;SDS011;10210;52.284;9.892;2023-02-01T08:49:55;16.50;;;3.63;;
20101;SDS011;10210;52.284;9.892;2023-02-01T08:52:21;18.90;;;3.27;;
20101;SDS011;10210;52.284;9.892;2023-02-01T08:54:47;18.63;;;3.83;;
20101;SDS011;10210;52.284;9.892;2023-02-01T08:57:12;19.67;;;3.47;;
20101;SDS011;10210;52.284;9.892;2023-02-01T08:59:38;18.97;;;3.60;;
20101;SDS011;10210;52.284;9.892;2023-02-01T09:02:03;20.73;;;4.50;;
20101;SDS011;10210;52.284;9.892;2023-02-01T09:04:30;15.30;;;3.43;;
20101;SDS011;10210;52.284;9.892;2023-02-01T09:06:55;17.17;;;3.33;;
20101;SDS011;10210;52.284;9.892;2023-02-01T09:09:21;17.57;;;3.43;;
20101;SDS011;10210;52.284;9.892;2023-02-01T09:11:48;15.80;;;3.07;;
20101;SDS011;10210;52.284;9.892;2023-02-01T09:14:15;23.70;;;3.47;;
20101;SDS011;10210;52.284;9.892;2023-02-01T09:16:41;17.60;;;3.30;;
20101;SDS011;10210;52.284;9.892;2023-02-01T09:19:07;16.63;;;3.27;;
20101;SDS011;10210;52.284;9.892;2023-02-01T09:21:33;17.77;;;3.10;;
20101;SDS011;10210;52.284;9.892;2023-02-01T09:23:59;16.83;;;3.30;;
20101;SDS011;10210;52.284;9.892;2023-02-01T09:26:24;19.27;;;3.60;;
20101;SDS011;10210;52.284;9.892;2023-02-01T09:28:51;17.07;;;3.27;;
20101;SDS011;10210;52.284;9.892;2023-02-01T09:31:17;16.57;;;2.90;;
20101;SDS011;10210;52.284;9.892;2023-02-01T09:33:44;15.90;;;3.03;;
20101;SDS011;10210;52.284;9.892;2023-02-01T09:36:10;15.67;;;3.00;;
20101;SDS011;10210;52.284;9.892;2023-02-01T09:38:36;18.90;;;3.37;;
20101;SDS011;10210;52.284;9.892;2023-02-01T09:41:06;14.80;;;2.93;;
20101;SDS011;10210;52.284;9.892;2023-02-01T09:44:03;17.50;;;4.30;;
20101;SDS011;10210;52.284;9.892;2023-02-01T09:46:44;13.47;;;2.97;;
20101;SDS011;10210;52.284;9.892;2023-02-01T09:49:30;17.63;;;3.37;;
20101;SDS011;10210;52.284;9.892;2023-02-01T09:52:07;25.10;;;3.33;;
20101;SDS011;10210;52.284;9.892;2023-02-01T09:54:40;19.50;;;4.03;;
20101;SDS011;10210;52.284;9.892;2023-02-01T09:57:16;17.37;;;3.50;;
20101;SDS011;10210;52.284;9.892;2023-02-01T09:59:57;18.93;;;3.47;;
20101;SDS011;10210;52.284;9.892;2023-02-01T10:02:32;17.77;;;3.33;;
20101;SDS011;10210;52.284;9.892;2023-02-01T10:05:03;16.77;;;3.10;;
20101;SDS011;10210;52.284;9.892;2023-02-01T10:07:38;13.67;;;3.03;;
20101;SDS011;10210;52.284;9.892;2023-02-01T10:11:08;16.10;;;3.17;;
20101;SDS011;10210;52.284;9.892;2023-02-01T10:20:35;15.03;;;3.00;;
20101;SDS011;10210;52.284;9.892;2023-02-01T10:26:20;17.77;;;4.03;;
20101;SDS011;10210;52.284;9.892;2023-02-01T10:28:57;16.13;;;3.20;;
20101;SDS011;10210;52.284;9.892;2023-02-01T10:31:28;22.20;;;3.20;;
20101;SDS011;10210;52.284;9.892;2023-02-01T10:33:59;16.97;;;2.97;;
20101;SDS011;10210;52.284;9.892;2023-02-01T10:36:41;15.80;;;3.07;;
20101;SDS011;10210;52.284;9.892;2023-02-01T10:39:17;16.50;;;3.40;;
20101;SDS011;10210;52.284;9.892;2023-02-01T10:41:44;13.93;;;3.10;;
20101;SDS011;10210;52.284;9.892;2023-02-01T10:44:11;18.07;;;3.77;;
20101;SDS011;10210;52.284;9.892;2023-02-01T10:46:41;19.53;;;3.40;;
20101;SDS011;10210;52.284;9.892;2023-02-01T10:49:24;14.73;;;3.13;;
20101;SDS011;10210;52.284;9.892;2023-02-01T10:52:10;18.93;;;3.80;;
20101;SDS011;10210;52.284;9.892;2023-02-01T10:54:42;19.87;;;3.90;;
20101;SDS011;10210;52.284;9.892;2023-02-01T10:57:29;18.80;;;3.43;;
20101;SDS011;10210;52.284;9.892;2023-02-01T10:59:56;20.20;;;3.73;;
20101;SDS011;10210;52.284;9.892;2023-02-01T11:02:32;16.47;;;3.83;;
20101;SDS011;10210;52.284;9.892;2023-02-01T11:05:01;16.57;;;3.23;;
20101;SDS011;10210;52.284;9.892;2023-02-01T11:07:37;18.80;;;3.07;;
20101;SDS011;10210;52.284;9.892;2023-02-01T11:13:07;20.97;;;3.63;;
20101;SDS011;10210;52.284;9.892;2023-02-01T11:15:45;14.77;;;3.10;;
20101;SDS011;10210;52.284;9.892;2023-02-01T11:18:20;16.50;;;3.00;;
20101;SDS011;10210;52.284;9.892;2023-02-01T11:20:54;15.97;;;3.87;;
20101;SDS011;10210;52.284;9.892;2023-02-01T11:23:23;16.40;;;3.40;;
20101;SDS011;10210;52.284;9.892;2023-02-01T11:25:54;17.23;;;3.70;;
20101;SDS011;10210;52.284;9.892;2023-02-01T11:28:22;15.40;;;3.40;;
20101;SDS011;10210;52.284;9.892;2023-02-01T11:31:01;15.13;;;3.00;;
20101;SDS011;10210;52.284;9.892;2023-02-01T11:33:32;16.57;;;3.20;;
20101;SDS011;10210;52.284;9.892;2023-02-01T11:36:08;14.10;;;3.17;;
20101;SDS011;10210;52.284;9.892;2023-02-01T11:38:52;21.53;;;3.40;;
20101;SDS011;10210;52.284;9.892;2023-02-01T11:41:56;16.63;;;3.37;;
20101;SDS011;10210;52.284;9.892;2023-02-01T11:44:43;12.57;;;3.60;;
20101;SDS011;10210;52.284;9.892;2023-02-01T11:47:24;21.53;;;4.50;;
20101;SDS011;10210;52.284;9.892;2023-02-01T11:50:08;15.30;;;3.80;;
20101;SDS011;10210;52.284;9.892;2023-02-01T12:02:10;18.37;;;3.73;;
20101;SDS011;10210;52.284;9.892;2023-02-01T12:05:07;15.17;;;3.50;;
20101;SDS011;10210;52.284;9.892;2023-02-01T12:11:16;20.37;;;3.80;;
20101;SDS011;10210;52.284;9.892;2023-02-01T12:19:52;19.00;;;3.27;;
20101;SDS011;10210;52.284;9.892;2023-02-01T12:36:43;21.50;;;4.13;;
20101;SDS011;10210;52.284;9.892;2023-02-01T12:39:40;17.27;;;3.70;;
20101;SDS011;10210;52.284;9.892;2023-02-01T12:44:56;17.70;;;3.83;;
20101;SDS011;10210;52.284;9.892;2023-02-01T12:47:40;16.53;;;3.40;;
20101;SDS011;10210;52.284;9.892;2023-02-01T12:50:33;16.93;;;3.33;;
20101;SDS011;10210;52.284;9.892;2023-02-01T12:53:15;14.57;;;2.93;;
20101;SDS011;10210;52.284;9.892;2023-02-01T12:55:53;18.43;;;3.83;;
20101;SDS011;10210;52.284;9.892;2023-02-01T12:58:37;16.77;;;3.73;;
20101;SDS011;10210;52.284;9.892;2023-02-01T13:03:58;14.70;;;3.50;;
20101;SDS011;10210;52.284;9.892;2023-02-01T13:09:44;13.17;;;3.27;;
20101;SDS011;10210;52.284;9.892;2023-02-01T13:12:36;14.73;;;3.17;;
20101;SDS011;10210;52.284;9.892;2023-02-01T13:17:52;14.83;;;3.10;;
20101;SDS011;10210;52.284;9.892;2023-02-01T13:20:33;13.77;;;3.43;;
20101;SDS011;10210;52.284;9.892;2023-02-01T13:23:18;15.20;;;3.00;;
20101;SDS011;10210;52.284;9.892;2023-02-01T13:25:54;17.93;;;3.07;;
20101;SDS011;10210;52.284;9.892;2023-02-01T13:28:31;11.17;;;2.50;;
20101;SDS011;10210;52.284;9.892;2023-02-01T13:31:28;12.90;;;3.03;;
20101;SDS011;10210;52.284;9.892;2023-02-01T13:34:29;13.57;;;2.87;;
20101;SDS011;10210;52.284;9.892;2023-02-01T13:40:18;10.80;;;2.30;;
20101;SDS011;10210;52.284;9.892;2023-02-01T13:45:52;11.83;;;2.43;;
20101;SDS011;10210;52.284;9.892;2023-02-01T13:48:24;2.93;;;0.80;;
20101;SDS011;10210;52.284;9.892;2023-02-01T13:50:55;4.37;;;0.87;;
20101;SDS011;10210;52.284;9.892;2023-02-01T13:53:31;1.40;;;0.63;;
20101;SDS011;10210;52.284;9.892;2023-02-01T13:58:42;4.60;;;1.70;;
20101;SDS011;10210;52.284;9.892;2023-02-01T14:09:40;4.77;;;1.40;;
20101;SDS011;10210;52.284;9.892;2023-02-01T14:15:18;2.60;;;1.33;;
20101;SDS011;10210;52.284;9.892;2023-02-01T14:17:53;4.00;;;1.00;;
20101;SDS011;10210;52.284;9.892;2023-02-01T14:23:10;1.50;;;0.90;;
20101;SDS011;10210;52.284;9.892;2023-02-01T14:25:44;3.50;;;1.40;;
20101;SDS011;10210;52.284;9.892;2023-02-01T14:28:24;2.43;;;1.40;;
20101;SDS011;10210;52.284;9.892;2023-02-01T14:30:54;5.00;;;1.60;;
20101;SDS011;10210;52.284;9.892;2023-02-01T14:33:24;4.20;;;1.40;;
20101;SDS011;10210;52.284;9.892;2023-02-01T14:36:03;5.53;;;1.37;;
20101;SDS011;10210;52.284;9.892;2023-02-01T14:38:35;3.63;;;1.40;;
20101;SDS011;10210;52.284;9.892;2023-02-01T14:41:11;2.87;;;1.30;;
20101;SDS011;10210;52.284;9.892;2023-02-01T14:49:34;2.77;;;1.03;;
20101;SDS011;10210;52.284;9.892;2023-02-01T14:52:46;2.37;;;1.00;;
20101;SDS011;10210;52.284;9.892;2023-02-01T14:55:41;2.37;;;1.00;;
20101;SDS011;10210;52.284;9.892;2023-02-01T14:58:35;4.13;;;1.30;;
20101;SDS011;10210;52.284;9.892;2023-02-01T15:09:37;6.90;;;1.23;;
20101;SDS011;10210;52.284;9.892;2023-02-01T15:14:46;5.57;;;1.53;;
20101;SDS011;10210;52.284;9.892;2023-02-01T15:17:31;3.03;;;1.03;;
20101;SDS011;10210;52.284;9.892;2023-02-01T15:20:03;4.83;;;1.30;;
20101;SDS011;10210;52.284;9.892;2023-02-01T15:25:28;5.57;;;1.40;;
20101;SDS011;10210;52.284;9.892;2023-02-01T15:27:56;3.90;;;1.20;;
20101;SDS011;10210;52.284;9.892;2023-02-01T15:30:27;8.40;;;1.40;;
20101;SDS011;10210;52.284;9.892;2023-02-01T15:33:06;7.33;;;1.90;;
20101;SDS011;10210;52.284;9.892;2023-02-01T15:35:42;6.27;;;1.80;;
20101;SDS011;10210;52.284;9.892;2023-02-01T15:38:25;8.60;;;1.73;;
20101;SDS011;10210;52.284;9.892;2023-02-01T15:43:47;10.50;;;2.57;;
20101;SDS011;10210;52.284;9.892;2023-02-01T15:46:34;8.23;;;2.30;;
20101;SDS011;10210;52.284;9.892;2023-02-01T15:49:41;9.97;;;2.30;;
20101;SDS011;10210;52.284;9.892;2023-02-01T15:52:16;9.73;;;2.07;;
20101;SDS011;10210;52.284;9.892;2023-02-01T15:55:08;9.10;;;2.10;;
20101;SDS011;10210;52.284;9.892;2023-02-01T15:58:08;11.77;;;2.57;;
20101;SDS011;10210;52.284;9.892;2023-02-01T16:00:45;9.83;;;2.40;;
20101;SDS011;10210;52.284;9.892;2023-02-01T16:06:07;10.63;;;2.47;;
20101;SDS011;10210;52.284;9.892;2023-02-01T16:11:32;17.37;;;6.40;;
20101;SDS011;10210;52.284;9.892;2023-02-01T16:14:27;12.37;;;2.73;;
20101;SDS011;10210;52.284;9.892;2023-02-01T16:16:54;10.47;;;3.40;;
20101;SDS011;10210;52.284;9.892;2023-02-01T16:19:23;15.17;;;3.33;;
20101;SDS011;10210;52.284;9.892;2023-02-01T16:21:53;10.77;;;2.60;;
20101;SDS011;10210;52.284;9.892;2023-02-01T16:24:19;8.37;;;2.10;;
20101;SDS011;10210;52.284;9.892;2023-02-01T16:26:48;14.40;;;3.03;;
20101;SDS011;10210;52.284;9.892;2023-02-01T16:29:13;10.57;;;2.67;;
20101;SDS011;10210;52.284;9.892;2023-02-01T16:31:40;11.20;;;2.40;;
20101;SDS011;10210;52.284;9.892;2023-02-01T16:34:11;12.17;;;3.10;;
20101;SDS011;10210;52.284;9.892;2023-02-01T16:36:41;14.47;;;2.80;;
20101;SDS011;10210;52.284;9.892;2023-02-01T16:39:10;13.23;;;2.67;;
20101;SDS011;10210;52.284;9.892;2023-02-01T16:41:37;15.40;;;3.20;;
20101;SDS011;10210;52.284;9.892;2023-02-01T16:44:04;18.53;;;4.17;;
20101;SDS011;10210;52.284;9.892;2023-02-01T16:46:31;17.77;;;3.83;;
20101;SDS011;10210;52.284;9.892;2023-02-01T16:49:04;16.60;;;3.30;;
20101;SDS011;10210;52.284;9.892;2023-02-01T16:51:31;12.57;;;2.83;;
20101;SDS011;10210;52.284;9.892;2023-02-01T16:53:58;14.80;;;4.43;;
20101;SDS011;10210;52.284;9.892;2023-02-01T16:56:29;14.80;;;2.93;;
20101;SDS011;10210;52.284;9.892;2023-02-01T16:58:58;15.77;;;3.23;;
20101;SDS011;10210;52.284;9.892;2023-02-01T17:01:24;13.82;;;2.83;;
20101;SDS011;10210;52.284;9.892;2023-02-01T17:03:50;17.07;;;3.17;;
20101;SDS011;10210;52.284;9.892;2023-02-01T17:06:17;15.07;;;3.53;;
20101;SDS011;10210;52.284;9.892;2023-02-01T17:08:50;14.70;;;2.70;;
20101;SDS011;10210;52.284;9.892;2023-02-01T17:11:22;14.13;;;2.50;;
20101;SDS011;10210;52.284;9.892;2023-02-01T17:13:49;15.03;;;3.00;;
20101;SDS011;10210;52.284;9.892;2023-02-01T17:18:43;17.07;;;2.80;;
20101;SDS011;10210;52.284;9.892;2023-02-01T17:21:15;15.67;;;2.93;;